createdAt,value
2019-02-14T00:00:14.283Z,98.30
2019-02-14T00:02:43.115Z,98.10
2019-02-14T00:05:16.458Z,98.10
2019-02-14T00:07:42.400Z,98.10
2019-02-14T00:10:11.232Z,98.20
2019-02-14T00:12:40.139Z,98.10
2019-02-14T00:15:13.459Z,98.10
2019-02-14T00:17:42.476Z,98.00
2019-02-14T00:20:11.300Z,98.00
2019-02-14T00:22:40.235Z,98.00
2019-02-14T00:25:10.756Z,98.20
2019-02-14T00:27:39.780Z,98.10
2019-02-14T00:30:11.625Z,98.10
2019-02-14T00:32:40.735Z,98.00
2019-02-14T00:35:09.634Z,98.00
2019-02-14T00:37:38.596Z,97.90
2019-02-14T00:40:09.334Z,98.00
2019-02-14T00:42:38.257Z,98.10
2019-02-14T00:45:12.156Z,98.00
2019-02-14T00:47:43.638Z,98.00
2019-02-14T00:50:12.694Z,98.10
2019-02-14T00:52:45.316Z,97.90
2019-02-14T00:55:14.047Z,97.90
2019-02-14T00:57:52.176Z,97.90
2019-02-14T01:00:22.200Z,97.90
2019-02-14T01:02:56.205Z,97.90
2019-02-14T01:05:33.075Z,97.70
2019-02-14T01:07:57.466Z,97.60
2019-02-14T01:10:28.416Z,97.50
2019-02-14T01:12:58.706Z,97.50
2019-02-14T01:15:29.618Z,97.60
2019-02-14T01:18:01.755Z,97.80
2019-02-14T01:20:35.332Z,97.40
2019-02-14T01:23:08.548Z,97.40
2019-02-14T01:25:35.332Z,97.60
2019-02-14T01:28:05.379Z,97.40
2019-02-14T01:30:34.232Z,97.30
2019-02-14T01:33:09.107Z,97.30
2019-02-14T01:35:41.982Z,97.10
2019-02-14T01:38:12.639Z,97.20
2019-02-14T01:40:53.488Z,97.20
2019-02-14T01:43:23.555Z,97.20
2019-02-14T01:45:52.256Z,97.20
2019-02-14T01:48:27.019Z,97.20
2019-02-14T01:51:03.225Z,97.20
2019-02-14T01:53:32.247Z,97.10
2019-02-14T01:56:07.033Z,97.20
2019-02-14T01:58:38.047Z,97.20
2019-02-14T02:01:08.690Z,97.30
2019-02-14T02:03:37.522Z,97.20
2019-02-14T02:06:06.243Z,97.10
2019-02-14T02:08:34.875Z,97.20
2019-02-14T02:11:05.016Z,97.20
2019-02-14T02:13:37.777Z,97.30
2019-02-14T02:16:17.437Z,97.30
2019-02-14T02:18:57.543Z,97.30
2019-02-14T02:21:38.158Z,97.30
2019-02-14T02:24:09.643Z,97.40
2019-02-14T02:26:38.656Z,97.40
2019-02-14T02:29:07.463Z,97.40
2019-02-14T02:31:36.359Z,97.50
2019-02-14T02:34:10.139Z,97.50
2019-02-14T02:36:40.105Z,97.50
2019-02-14T02:39:09.049Z,97.70
2019-02-14T02:41:37.989Z,97.60
2019-02-14T02:44:06.631Z,97.60
2019-02-14T02:46:35.424Z,97.70
2019-02-14T02:49:04.477Z,97.80
2019-02-14T02:51:33.353Z,97.90
2019-02-14T02:54:02.405Z,97.70
2019-02-14T02:56:31.122Z,97.80
2019-02-14T02:58:59.821Z,97.70
2019-02-14T03:01:31.617Z,97.90
2019-02-14T03:04:08.835Z,97.90
2019-02-14T03:06:40.735Z,98.00
2019-02-14T03:09:09.480Z,98.00
2019-02-14T03:11:38.315Z,97.90
2019-02-14T03:14:07.223Z,98.00
2019-02-14T03:16:38.645Z,97.90
2019-02-14T03:19:10.061Z,97.90
2019-02-14T03:21:39.197Z,98.00
2019-02-14T03:24:08.017Z,97.90
2019-02-14T03:26:36.909Z,98.00
2019-02-14T03:29:05.740Z,98.10
2019-02-14T03:31:34.507Z,98.00
2019-02-14T03:34:08.505Z,97.90
2019-02-14T03:36:40.176Z,97.70
2019-02-14T03:39:11.995Z,97.90
2019-02-14T03:41:41.055Z,98.00
2019-02-14T03:44:10.990Z,98.00
2019-02-14T03:46:47.528Z,97.90
2019-02-14T03:49:16.347Z,97.90
2019-02-14T03:51:45.731Z,97.80
2019-02-14T03:54:14.539Z,97.80
2019-02-14T03:56:46.227Z,97.70
2019-02-14T03:59:15.011Z,97.60
2019-02-14T04:01:47.066Z,97.40
2019-02-14T04:04:15.925Z,97.50
2019-02-14T04:06:44.607Z,97.40
2019-02-14T04:09:13.482Z,97.40
2019-02-14T04:11:45.273Z,97.50
2019-02-14T04:14:14.101Z,97.50
2019-02-14T04:16:42.934Z,97.30
2019-02-14T04:19:11.766Z,97.40
2019-02-14T04:21:43.265Z,97.40
2019-02-14T04:24:12.086Z,97.50
2019-02-14T04:26:42.438Z,97.40
2019-02-14T04:29:11.375Z,97.50
2019-02-14T04:31:41.808Z,97.50
2019-02-14T04:34:10.583Z,97.40
2019-02-14T04:36:39.478Z,97.50
2019-02-14T04:39:08.444Z,97.40
2019-02-14T04:41:37.307Z,97.50
2019-02-14T04:44:06.151Z,97.60
2019-02-14T04:46:36.419Z,97.70
2019-02-14T04:49:05.378Z,97.80
2019-02-14T04:51:36.970Z,97.50
2019-02-14T04:54:05.819Z,97.30
2019-02-14T04:56:34.627Z,97.40
2019-02-14T04:59:05.212Z,97.30
2019-02-14T05:01:37.144Z,97.40
2019-02-14T05:04:06.026Z,97.40
2019-02-14T05:06:34.879Z,97.20
2019-02-14T05:09:04.836Z,97.00
2019-02-14T05:11:33.522Z,97.10
2019-02-14T05:14:02.385Z,97.20
2019-02-14T05:16:31.028Z,97.10
2019-02-14T05:19:05.074Z,97.10
2019-02-14T05:21:33.902Z,97.10
2019-02-14T05:24:04.300Z,97.00
2019-02-14T05:26:33.592Z,96.90
2019-02-14T05:29:02.311Z,96.50
2019-02-14T05:31:34.091Z,96.40
2019-02-14T05:34:02.518Z,96.00
2019-02-14T05:36:32.811Z,95.90
2019-02-14T05:39:01.735Z,96.10
2019-02-14T05:41:37.781Z,96.10
2019-02-14T05:44:04.126Z,96.00
2019-02-14T05:46:32.937Z,96.00
2019-02-14T05:49:04.031Z,96.00
2019-02-14T05:51:32.536Z,95.90
2019-02-14T05:54:01.313Z,95.90
2019-02-14T05:56:30.959Z,96.00
2019-02-14T05:58:59.849Z,95.90
2019-02-14T06:01:28.871Z,95.50
2019-02-14T06:03:57.644Z,95.60
2019-02-14T06:06:26.646Z,95.50
2019-02-14T06:09:13.085Z,95.30
2019-02-14T06:11:49.694Z,95.50
2019-02-14T06:14:25.417Z,95.70
2019-02-14T06:17:00.822Z,95.50
2019-02-14T06:19:46.935Z,95.20
2019-02-14T06:22:12.970Z,95.30
2019-02-14T06:25:08.023Z,95.20
2019-02-14T06:28:06.566Z,95.20
2019-02-14T06:30:39.797Z,95.20
2019-02-14T06:36:01.104Z,95.30
2019-02-14T06:38:30.033Z,95.40
2019-02-14T06:40:59.024Z,95.30
2019-02-14T06:43:38.367Z,95.30
2019-02-14T06:46:07.466Z,95.20
2019-02-14T06:48:38.176Z,95.10
2019-02-14T06:51:09.348Z,95.20
2019-02-14T06:53:38.338Z,95.20
2019-02-14T06:56:07.082Z,95.20
2019-02-14T06:58:35.804Z,95.20
2019-02-14T07:01:04.718Z,94.90
2019-02-14T07:03:33.686Z,94.90
2019-02-14T07:06:07.674Z,94.80
2019-02-14T07:08:36.505Z,95.00
2019-02-14T07:11:05.527Z,95.30
2019-02-14T07:13:34.222Z,94.90
2019-02-14T07:16:03.102Z,94.60
2019-02-14T07:18:35.468Z,94.60
2019-02-14T07:21:14.313Z,94.40
2019-02-14T07:23:43.044Z,94.50
2019-02-14T07:26:12.008Z,94.70
2019-02-14T07:28:41.833Z,94.70
2019-02-14T07:31:10.544Z,94.50
2019-02-14T07:33:39.332Z,94.40
2019-02-14T07:36:08.174Z,94.40
2019-02-14T07:38:37.048Z,94.40
2019-02-14T07:41:05.909Z,94.20
2019-02-14T07:43:34.666Z,94.20
2019-02-14T07:46:03.405Z,94.10
2019-02-14T07:48:31.961Z,94.10
2019-02-14T07:51:00.788Z,93.90
2019-02-14T07:53:32.031Z,93.90
2019-02-14T07:56:00.882Z,94.00
2019-02-14T07:58:29.674Z,93.80
2019-02-14T08:00:58.453Z,93.90
2019-02-14T08:03:27.237Z,93.90
2019-02-14T08:05:56.087Z,94.00
2019-02-14T08:08:27.048Z,94.00
2019-02-14T08:10:55.978Z,94.00
2019-02-14T08:13:25.745Z,93.70
2019-02-14T08:15:54.943Z,94.10
2019-02-14T08:18:23.744Z,93.70
2019-02-14T08:20:52.322Z,93.80
2019-02-14T08:23:21.020Z,93.80
2019-02-14T08:25:52.902Z,93.70
2019-02-14T08:28:21.678Z,93.70
2019-02-14T08:30:56.804Z,93.70
2019-02-14T08:33:25.593Z,93.70
2019-02-14T08:35:54.466Z,93.70
2019-02-14T08:38:24.210Z,93.80
2019-02-14T08:40:55.156Z,93.60
2019-02-14T08:43:23.456Z,93.30
2019-02-14T08:45:52.176Z,93.30
2019-02-14T08:48:21.003Z,93.20
2019-02-14T08:50:49.743Z,93.30
2019-02-14T08:53:18.494Z,93.00
2019-02-14T08:55:47.331Z,92.70
2019-02-14T08:58:16.084Z,92.60
2019-02-14T09:00:54.272Z,92.50
2019-02-14T09:03:24.614Z,92.20
2019-02-14T09:05:50.907Z,92.20
2019-02-14T09:08:19.621Z,91.70
2019-02-14T09:10:48.434Z,91.50
2019-02-14T09:13:17.602Z,91.70
2019-02-14T09:15:46.598Z,91.70
2019-02-14T09:18:15.369Z,91.60
2019-02-14T09:20:44.152Z,91.40
2019-02-14T09:23:14.678Z,91.00
2019-02-14T09:25:43.293Z,90.80
2019-02-14T09:28:12.218Z,91.00
2019-02-14T09:30:41.024Z,91.10
2019-02-14T09:33:09.709Z,91.00
2019-02-14T09:35:38.530Z,91.20
2019-02-14T09:38:07.310Z,91.20
2019-02-14T09:40:36.134Z,91.30
2019-02-14T09:43:04.895Z,91.10
2019-02-14T09:45:33.608Z,91.00
2019-02-14T09:48:02.331Z,90.40
2019-02-14T09:50:31.154Z,89.90
2019-02-14T09:53:00.000Z,88.90
2019-02-14T09:55:28.724Z,88.60
2019-02-14T09:57:57.586Z,87.80
2019-02-14T10:00:26.378Z,88.70
2019-02-14T10:02:55.069Z,87.20
2019-02-14T10:05:24.021Z,86.50
2019-02-14T10:07:52.662Z,86.60
2019-02-14T10:10:25.010Z,86.70
2019-02-14T10:12:59.436Z,85.50
2019-02-14T10:15:28.235Z,85.60
2019-02-14T10:17:56.879Z,86.20
2019-02-14T10:20:25.631Z,86.20
2019-02-14T10:22:54.589Z,85.90
2019-02-14T10:25:23.382Z,85.90
2019-02-14T10:27:52.028Z,85.60
2019-02-14T10:30:22.065Z,85.10
2019-02-14T10:32:50.898Z,84.20
2019-02-14T10:35:19.623Z,84.30
2019-02-14T10:37:48.331Z,83.50
2019-02-14T10:40:17.555Z,83.30
2019-02-14T10:42:47.457Z,83.80
2019-02-14T10:45:23.078Z,83.30
2019-02-14T10:47:51.595Z,83.30
2019-02-14T10:50:20.327Z,83.20
2019-02-14T10:52:49.165Z,83.60
2019-02-14T10:55:18.029Z,83.90
2019-02-14T10:57:48.613Z,83.70
2019-02-14T11:00:21.331Z,83.40
2019-02-14T11:02:50.119Z,82.40
2019-02-14T11:05:24.171Z,82.50
2019-02-14T11:07:59.315Z,81.50
2019-02-14T11:10:29.151Z,81.60
2019-02-14T11:13:00.989Z,81.90
2019-02-14T11:15:31.052Z,81.50
2019-02-14T11:18:02.856Z,82.40
2019-02-14T11:20:32.923Z,82.20
2019-02-14T11:23:09.263Z,82.80
2019-02-14T11:25:42.488Z,82.20
2019-02-14T11:28:12.259Z,83.30
2019-02-14T11:30:40.933Z,83.20
2019-02-14T11:33:09.623Z,82.30
2019-02-14T11:35:38.333Z,81.90
2019-02-14T11:38:07.183Z,81.20
2019-02-14T11:40:36.035Z,81.50
2019-02-14T11:43:05.767Z,81.90
2019-02-14T11:45:34.594Z,82.30
2019-02-14T11:48:05.703Z,81.20
2019-02-14T11:50:34.556Z,80.80
2019-02-14T11:53:03.435Z,80.00
2019-02-14T11:55:32.185Z,80.10
2019-02-14T11:58:21.969Z,80.50
2019-02-14T12:00:50.723Z,79.90
2019-02-14T12:03:19.486Z,78.90
2019-02-14T12:05:48.407Z,76.60
2019-02-14T12:08:17.278Z,73.50
2019-02-14T12:10:45.961Z,70.80
2019-02-14T12:13:14.889Z,70.00
2019-02-14T12:15:43.694Z,70.10
2019-02-14T12:18:12.323Z,70.20
2019-02-14T12:20:41.158Z,67.80
2019-02-14T12:23:09.982Z,67.10
2019-02-14T12:25:38.637Z,67.70
2019-02-14T12:28:09.468Z,70.50
2019-02-14T12:30:38.193Z,71.30
2019-02-14T12:33:06.983Z,69.40
2019-02-14T12:35:35.630Z,67.30
2019-02-14T12:38:04.435Z,65.30
2019-02-14T12:40:33.329Z,65.30
2019-02-14T12:43:03.541Z,63.70
2019-02-14T12:45:32.367Z,60.80
2019-02-14T12:48:02.270Z,58.60
2019-02-14T12:50:31.198Z,54.10
2019-02-14T12:52:59.932Z,52.00
2019-02-14T12:55:31.082Z,51.60
2019-02-14T12:57:59.895Z,51.50
2019-02-14T13:00:30.387Z,51.60
2019-02-14T13:03:00.352Z,51.20
2019-02-14T13:05:29.168Z,52.50
2019-02-14T13:07:58.023Z,51.70
2019-02-14T13:10:30.112Z,50.70
2019-02-14T13:13:01.527Z,49.00
2019-02-14T13:15:30.363Z,49.10
2019-02-14T13:18:00.652Z,50.30
2019-02-14T13:20:31.122Z,53.40
2019-02-14T13:22:59.911Z,56.00
2019-02-14T13:25:28.666Z,56.60
2019-02-14T13:28:00.073Z,57.30
2019-02-14T13:30:28.915Z,58.50
2019-02-14T13:32:57.896Z,58.40
2019-02-14T13:35:29.981Z,57.50
2019-02-14T13:37:58.962Z,55.50
2019-02-14T13:40:27.803Z,53.00
2019-02-14T13:42:56.677Z,53.10
2019-02-14T13:45:25.670Z,51.70
2019-02-14T13:47:54.501Z,51.20
2019-02-14T13:50:28.602Z,51.10
2019-02-14T13:52:54.781Z,51.00
2019-02-14T13:55:23.672Z,51.90
2019-02-14T13:57:52.522Z,52.50
2019-02-14T14:00:27.071Z,52.50
2019-02-14T14:02:58.590Z,51.20
2019-02-14T14:05:27.368Z,50.20
2019-02-14T14:07:56.257Z,52.70
2019-02-14T14:10:25.126Z,54.10
2019-02-14T14:12:55.461Z,57.20
2019-02-14T14:15:24.363Z,57.40
2019-02-14T14:17:53.414Z,56.50
2019-02-14T14:20:27.116Z,57.50
2019-02-14T14:22:57.141Z,58.60
2019-02-14T14:25:48.926Z,58.70
2019-02-14T14:28:28.151Z,58.90
2019-02-14T14:31:18.328Z,58.20
2019-02-14T14:33:57.106Z,58.20
2019-02-14T14:36:29.134Z,57.00
2019-02-14T14:39:06.815Z,58.20
2019-02-14T14:41:38.326Z,59.00
2019-02-14T14:44:13.257Z,59.50
2019-02-14T14:47:15.216Z,60.00
2019-02-14T14:49:54.316Z,60.30
2019-02-14T14:52:27.358Z,58.90
2019-02-14T14:55:13.438Z,59.30
2019-02-14T14:57:48.586Z,59.30
2019-02-14T15:00:29.670Z,60.20
2019-02-14T15:03:10.794Z,62.30
2019-02-14T15:05:42.746Z,64.30
2019-02-14T15:08:20.860Z,65.70
2019-02-14T15:10:54.077Z,67.30
2019-02-14T15:13:37.028Z,69.20
2019-02-14T15:16:19.460Z,72.10
2019-02-14T15:18:55.443Z,75.20
2019-02-14T15:21:56.014Z,77.40
2019-02-14T15:24:22.344Z,79.40
2019-02-14T15:26:53.448Z,81.80
2019-02-14T15:29:22.298Z,83.00
2019-02-14T15:31:56.993Z,84.50
2019-02-14T15:34:26.035Z,85.70
2019-02-14T15:36:57.555Z,87.10
2019-02-14T15:39:29.511Z,87.10
2019-02-14T15:42:36.232Z,87.70
2019-02-14T15:45:05.832Z,88.70
2019-02-14T15:47:37.496Z,89.40
2019-02-14T15:50:09.701Z,89.80
2019-02-14T15:52:45.691Z,90.10
2019-02-14T15:59:29.083Z,90.70
2019-02-14T16:02:15.890Z,91.20
2019-02-14T16:05:14.643Z,91.30
2019-02-14T16:08:51.266Z,91.60
2019-02-14T16:11:23.158Z,91.90
2019-02-14T16:17:11.238Z,92.20
2019-02-14T16:19:38.105Z,92.40
2019-02-14T16:22:10.325Z,92.70
2019-02-14T16:24:40.814Z,92.80
2019-02-14T16:27:09.578Z,92.90
2019-02-14T16:29:38.407Z,93.30
2019-02-14T16:32:07.123Z,93.40
2019-02-14T16:34:37.383Z,93.70
2019-02-14T16:37:07.212Z,93.90
2019-02-14T16:39:35.954Z,93.90
2019-02-14T16:42:07.707Z,94.20
2019-02-14T16:44:39.303Z,94.30
2019-02-14T16:47:09.178Z,94.70
2019-02-14T16:49:40.687Z,94.90
2019-02-14T16:52:09.507Z,95.00
2019-02-14T16:54:38.173Z,95.10
2019-02-14T16:57:06.993Z,95.10
2019-02-14T16:59:35.777Z,95.60
2019-02-14T17:02:04.495Z,95.30
2019-02-14T17:04:33.208Z,95.60
2019-02-14T17:07:01.837Z,95.60
2019-02-14T17:09:32.264Z,95.50
2019-02-14T17:12:00.960Z,95.40
2019-02-14T17:14:31.387Z,95.30
2019-02-14T17:17:04.837Z,95.40
2019-02-14T17:19:36.737Z,95.40
2019-02-14T17:22:14.422Z,95.40
2019-02-14T17:24:43.211Z,95.50
2019-02-14T17:27:11.897Z,95.60
2019-02-14T17:29:41.650Z,95.70
2019-02-14T17:32:10.705Z,95.80
2019-02-14T17:34:41.399Z,95.60
2019-02-14T17:37:11.794Z,95.90
2019-02-14T17:39:40.441Z,96.30
2019-02-14T17:42:09.171Z,96.10
2019-02-14T17:44:38.139Z,96.10
2019-02-14T17:47:06.860Z,96.10
2019-02-14T17:49:37.612Z,96.20
2019-02-14T17:52:06.119Z,96.30
2019-02-14T17:54:38.103Z,96.40
2019-02-14T17:57:06.813Z,96.40
2019-02-14T17:59:39.876Z,96.40
2019-02-14T18:02:08.623Z,96.40
2019-02-14T18:04:37.435Z,96.50
2019-02-14T18:07:08.037Z,96.70
2019-02-14T18:09:38.712Z,96.80
2019-02-14T18:12:07.612Z,96.70
2019-02-14T18:14:36.383Z,96.80
2019-02-14T18:17:05.279Z,96.80
2019-02-14T18:19:34.175Z,96.90
2019-02-14T18:22:02.986Z,97.00
2019-02-14T18:24:31.889Z,97.40
2019-02-14T18:27:02.699Z,97.40
2019-02-14T18:29:41.828Z,97.60
2019-02-14T18:32:13.593Z,97.50
2019-02-14T18:34:48.806Z,97.60
2019-02-14T18:37:19.503Z,97.70
2019-02-14T18:39:50.604Z,97.70
2019-02-14T18:42:19.513Z,97.70
2019-02-14T18:44:53.496Z,98.00
2019-02-14T18:47:39.550Z,98.00
2019-02-14T18:50:10.968Z,98.20
2019-02-14T18:52:38.609Z,98.30
2019-02-14T18:55:15.770Z,98.30
2019-02-14T18:57:44.480Z,98.40
2019-02-14T19:00:20.804Z,98.40
2019-02-14T19:02:52.350Z,98.60
2019-02-14T19:05:24.260Z,98.40
2019-02-14T19:07:57.399Z,98.50
2019-02-14T19:10:29.089Z,98.50
2019-02-14T19:12:57.970Z,98.50
2019-02-14T19:15:26.962Z,98.60
2019-02-14T19:17:58.341Z,98.50
2019-02-14T19:20:27.378Z,98.60
2019-02-14T19:23:05.793Z,98.50
2019-02-14T19:25:36.405Z,98.50
2019-02-14T19:28:23.091Z,98.40
2019-02-14T19:30:53.610Z,98.60
2019-02-14T19:33:30.030Z,98.60
2019-02-14T19:36:07.329Z,98.60
2019-02-14T19:38:33.579Z,98.60
2019-02-14T19:41:14.193Z,98.70
2019-02-14T19:43:43.049Z,98.60
2019-02-14T19:46:11.970Z,98.70
2019-02-14T19:48:43.089Z,98.80
2019-02-14T19:51:20.301Z,98.70
2019-02-14T19:53:49.421Z,98.80
2019-02-14T19:56:18.308Z,98.60
2019-02-14T19:58:47.259Z,98.50
2019-02-14T20:01:18.098Z,98.80
2019-02-14T20:03:46.935Z,98.80
2019-02-14T20:06:15.785Z,98.90
2019-02-14T20:08:44.544Z,99.00
2019-02-14T20:11:18.926Z,99.10
2019-02-14T20:13:51.773Z,99.10
2019-02-14T20:16:20.485Z,99.00
2019-02-14T20:18:49.259Z,98.60
2019-02-14T20:21:18.152Z,98.80
2019-02-14T20:23:46.936Z,98.80
2019-02-14T20:26:15.709Z,99.00
2019-02-14T20:28:44.696Z,99.00
2019-02-14T20:31:13.438Z,99.00
2019-02-14T20:33:42.329Z,99.00
2019-02-14T20:36:11.303Z,99.10
2019-02-14T20:38:39.981Z,99.10
2019-02-14T20:41:08.724Z,99.10
2019-02-14T20:43:39.883Z,99.20
2019-02-14T20:46:08.707Z,99.30
2019-02-14T20:48:41.109Z,99.50
2019-02-14T20:51:09.904Z,99.60
2019-02-14T20:53:39.214Z,99.70
2019-02-14T20:56:09.765Z,99.80
2019-02-14T20:58:38.630Z,99.80
2019-02-14T21:01:10.263Z,99.80
2019-02-14T21:03:41.902Z,99.80
2019-02-14T21:06:10.800Z,99.80
2019-02-14T21:08:48.607Z,99.90
2019-02-14T21:11:17.447Z,99.90
2019-02-14T21:14:02.559Z,99.90
2019-02-14T21:16:31.371Z,99.90
2019-02-14T21:19:04.787Z,99.90
2019-02-14T21:21:37.505Z,99.90
2019-02-14T21:24:06.572Z,99.90
2019-02-14T21:26:38.387Z,99.90
2019-02-14T21:29:24.593Z,99.90
2019-02-14T21:31:59.855Z,99.90
2019-02-14T21:34:28.566Z,99.90
2019-02-14T21:36:59.259Z,99.90
2019-02-14T21:39:36.771Z,99.90
2019-02-14T21:42:19.508Z,99.90
2019-02-14T21:44:36.067Z,99.90
2019-02-14T21:47:07.985Z,99.90
2019-02-14T21:49:39.802Z,99.90
2019-02-14T21:52:08.694Z,99.90
2019-02-14T21:54:37.614Z,99.90
2019-02-14T21:57:06.508Z,99.90
2019-02-14T21:59:36.816Z,99.90
2019-02-14T22:02:07.780Z,99.90
2019-02-14T22:04:38.532Z,99.90
2019-02-14T22:07:07.498Z,99.90
2019-02-14T22:09:36.361Z,99.90
2019-02-14T22:12:05.046Z,99.90
2019-02-14T22:14:33.894Z,99.90
2019-02-14T22:17:02.759Z,99.90
2019-02-14T22:19:32.871Z,99.90
2019-02-14T22:22:05.943Z,99.90
2019-02-14T22:24:48.709Z,99.90
2019-02-14T22:27:13.438Z,99.90
2019-02-14T22:29:53.210Z,99.90
2019-02-14T22:32:57.879Z,99.90
2019-02-14T22:35:26.566Z,99.90
2019-02-14T22:37:55.350Z,99.90
2019-02-14T22:40:24.416Z,99.90
2019-02-14T22:42:53.302Z,99.90
2019-02-14T22:45:22.056Z,99.90
2019-02-14T22:47:50.846Z,99.90
2019-02-14T22:50:19.454Z,99.90
2019-02-14T22:52:48.161Z,99.90
2019-02-14T22:55:20.000Z,99.90
2019-02-14T22:57:57.867Z,99.90
2019-02-14T23:00:38.553Z,99.90
2019-02-14T23:03:05.833Z,99.90
2019-02-14T23:06:01.963Z,99.90
2019-02-14T23:08:33.634Z,99.90
2019-02-14T23:11:02.304Z,99.90
2019-02-14T23:13:31.044Z,99.90
2019-02-14T23:16:01.056Z,99.90
2019-02-14T23:18:29.878Z,99.90
2019-02-14T23:20:58.694Z,99.90
2019-02-14T23:23:30.594Z,99.90
2019-02-14T23:25:59.346Z,99.90
2019-02-14T23:28:28.109Z,99.90
2019-02-14T23:31:05.773Z,99.90
2019-02-14T23:33:42.343Z,99.90
2019-02-14T23:36:31.183Z,99.90
2019-02-14T23:39:00.354Z,99.90
2019-02-14T23:41:38.749Z,99.90
2019-02-14T23:47:43.919Z,99.90
2019-02-14T23:50:23.665Z,99.90
2019-02-14T23:52:52.329Z,99.90
2019-02-14T23:55:23.786Z,99.90
2019-02-14T23:57:52.579Z,99.90
